Time;durP1;ratioP1;P1;durP2;ratioP2;P2;SDS_P1;SDS_P2;PMS_P1;PMS_P2;Temp;Humidity;BMP_temperature;BMP_pressure;BME280_temperature;BME280_humidity;BME280_pressure;Samples;Min_cycle;Max_cycle;Signal;HPM_P1;HPM_P2
2022/11/30 00:07:33;;;;;;;8.98;4.53;;;6.30;99.90;;;;;;21215051;28;20142;-83
2022/11/30 00:17:33;;;;;;;7.65;4.50;;;6.20;99.90;;;;;;21234609;27;20035;-83
2022/11/30 00:27:34;;;;;;;6.73;3.73;;;6.20;99.90;;;;;;21229593;27;20066;-81
2022/11/30 00:37:35;;;;;;;6.90;3.83;;;6.20;99.90;;;;;;21238205;27;20027;-83
2022/11/30 00:47:36;;;;;;;8.07;4.47;;;6.00;99.90;;;;;;21240938;27;20497;-83
2022/11/30 00:57:38;;;;;;;10.95;4.20;;;6.00;99.90;;;;;;21249876;27;20039;-82
2022/11/30 01:07:39;;;;;;;9.13;4.37;;;6.10;99.90;;;;;;21247058;27;20035;-83
2022/11/30 01:17:40;;;;;;;7.63;4.40;;;6.20;99.90;;;;;;21229302;27;20027;-83
2022/11/30 01:27:41;;;;;;;17.52;8.48;;;6.10;99.90;;;;;;21245836;27;20027;-83
2022/11/30 01:37:42;;;;;;;16.60;7.83;;;6.20;99.90;;;;;;21244544;27;20513;-83
2022/11/30 01:47:47;;;;;;;10.90;5.47;;;6.20;99.90;;;;;;21245407;27;20039;-83
2022/11/30 01:58:00;;;;;;;17.48;7.90;;;6.10;99.90;;;;;;21263675;27;20561;-83
2022/11/30 02:08:01;;;;;;;28.33;9.77;;;6.20;99.90;;;;;;21245547;27;20475;-82
2022/11/30 02:18:14;;;;;;;28.73;11.43;;;6.20;99.90;;;;;;21240967;27;20034;-83
2022/11/30 02:28:48;;;;;;;28.52;11.18;;;6.30;99.90;;;;;;21315641;27;20307;-83
2022/11/30 02:38:49;;;;;;;35.65;12.07;;;6.20;99.90;;;;;;21353229;27;20030;-83
2022/11/30 02:49:11;;;;;;;34.83;12.85;;;6.20;99.90;;;;;;21355909;27;20054;-83
2022/11/30 02:59:12;;;;;;;29.55;11.82;;;6.20;99.90;;;;;;21341733;27;20573;-82
2022/11/30 03:09:13;;;;;;;;;;;6.10;99.90;;;;;;21306180;27;20031;-82
2022/11/30 03:19:14;;;;;;;20.27;8.27;;;6.00;99.90;;;;;;21192360;27;20367;-81
2022/11/30 03:29:15;;;;;;;;;;;6.10;99.90;;;;;;21252887;27;20485;-82
2022/11/30 03:39:18;;;;;;;9.90;5.18;;;6.10;99.90;;;;;;21223897;27;19912;-82
2022/11/30 03:49:19;;;;;;;8.10;4.73;;;6.00;99.90;;;;;;21249476;27;20486;-81
2022/11/30 03:59:20;;;;;;;;;;;5.90;99.90;;;;;;21312353;27;20042;-82
2022/11/30 04:09:21;;;;;;;10.07;5.67;;;5.70;99.90;;;;;;21325761;27;20334;-81
2022/11/30 04:19:21;;;;;;;;;;;5.60;99.90;;;;;;21319881;27;20823;-81
2022/11/30 04:29:22;;;;;;;11.77;6.37;;;5.50;99.90;;;;;;21238721;27;19915;-80
2022/11/30 04:39:23;;;;;;;;;;;5.50;99.90;;;;;;21221525;27;20397;-81
2022/11/30 04:49:25;;;;;;;12.37;6.37;;;5.60;99.90;;;;;;21237574;27;19919;-82
2022/11/30 04:59:25;;;;;;;;;;;5.50;99.90;;;;;;21254473;27;20497;-81
2022/11/30 05:09:26;;;;;;;10.40;5.37;;;5.40;99.90;;;;;;21218494;27;19918;-81
2022/11/30 05:19:27;;;;;;;;;;;5.50;99.90;;;;;;21234713;27;20626;-81
2022/11/30 05:29:28;;;;;;;10.20;5.23;;;5.60;99.90;;;;;;21235427;27;19942;-81
2022/11/30 05:39:28;;;;;;;;;;;5.70;99.90;;;;;;21252570;27;20091;-81
2022/11/30 05:49:29;;;;;;;16.90;8.00;;;5.70;99.90;;;;;;21233414;27;20006;-81
2022/11/30 05:59:30;;;;;;;;;;;5.60;99.90;;;;;;21215671;27;20088;-81
2022/11/30 06:09:31;;;;;;;16.75;6.13;;;5.70;99.90;;;;;;21230475;27;19990;-82
2022/11/30 06:19:31;;;;;;;7.72;4.20;;;5.80;99.90;;;;;;21254744;27;20386;-81
2022/11/30 06:29:32;;;;;;;7.90;4.20;;;5.60;99.90;;;;;;21297334;27;20525;-82
2022/11/30 06:39:33;;;;;;;6.00;3.63;;;5.70;99.90;;;;;;21342857;27;20026;-77
2022/11/30 06:49:34;;;;;;;8.93;3.93;;;6.60;99.90;;;;;;21321426;27;20033;-78
2022/11/30 06:59:41;;;;;;;9.53;4.73;;;6.80;99.90;;;;;;21343491;27;20054;-79
2022/11/30 07:09:41;;;;;;;9.43;4.97;;;6.60;99.90;;;;;;21366796;27;20097;-80
2022/11/30 07:19:42;;;;;;;12.87;5.77;;;6.40;99.90;;;;;;21348603;27;20087;-81
2022/11/30 07:29:43;;;;;;;15.25;6.43;;;6.10;99.90;;;;;;21314188;27;20133;-80
2022/11/30 07:39:44;;;;;;;14.50;6.75;;;6.00;99.90;;;;;;21347743;27;20080;-79
2022/11/30 07:49:45;;;;;;;12.80;7.00;;;5.90;99.90;;;;;;21366955;27;20038;-80
2022/11/30 07:59:45;;;;;;;14.90;8.18;;;5.90;99.90;;;;;;21337866;27;20294;-81
2022/11/30 08:09:47;;;;;;;;;;;5.90;99.90;;;;;;21342952;27;20062;-80
2022/11/30 08:19:48;;;;;;;21.83;8.87;;;6.00;99.90;;;;;;21354021;27;20006;-80
2022/11/30 08:29:49;;;;;;;;;;;6.00;99.90;;;;;;21358193;27;20031;-80
2022/11/30 08:39:49;;;;;;;19.93;9.47;;;6.10;99.90;;;;;;21374110;27;19954;-80
2022/11/30 08:49:50;;;;;;;17.40;9.07;;;6.30;99.90;;;;;;21375145;27;20031;-80
2022/11/30 08:59:51;;;;;;;20.97;9.27;;;6.50;99.90;;;;;;21339773;27;20365;-80
2022/11/30 09:09:52;;;;;;;17.65;9.43;;;6.50;99.90;;;;;;21369538;27;20031;-80
2022/11/30 09:19:53;;;;;;;19.17;10.27;;;6.60;99.90;;;;;;21369842;27;20557;-80
2022/11/30 09:29:54;;;;;;;26.02;11.05;;;6.60;99.90;;;;;;21365862;27;20215;-80
2022/11/30 09:39:55;;;;;;;;;;;6.40;99.90;;;;;;21340577;27;20031;-79
2022/11/30 09:50:00;;;;;;;22.00;10.10;;;6.40;99.90;;;;;;21328542;27;19911;-78
2022/11/30 10:00:13;;;;;;;22.65;10.00;;;6.40;99.90;;;;;;21338953;27;20821;-78
2022/11/30 10:10:20;;;;;;;23.30;10.20;;;6.40;99.90;;;;;;21319278;27;20034;-78
2022/11/30 10:20:42;;;;;;;69.93;23.65;;;6.40;99.90;;;;;;21318626;27;20539;-77
2022/11/30 10:30:44;;;;;;;30.80;12.68;;;6.50;99.90;;;;;;21300659;27;20457;-77
2022/11/30 10:40:59;;;;;;;20.42;9.73;;;6.50;99.90;;;;;;21318702;27;20038;-78
2022/11/30 10:51:02;;;;;;;20.95;9.13;;;6.60;99.90;;;;;;21336568;27;20034;-78
2022/11/30 11:01:10;;;;;;;20.10;8.45;;;6.40;99.90;;;;;;21318338;27;20038;-78
2022/11/30 11:11:35;;;;;;;17.17;7.75;;;6.70;99.90;;;;;;21317890;27;20035;-77
2022/11/30 11:21:36;;;;;;;13.75;6.95;;;6.80;99.90;;;;;;21318642;27;20052;-79
2022/11/30 11:31:42;;;;;;;13.87;6.90;;;7.10;99.90;;;;;;21300280;27;20066;-79
2022/11/30 11:41:43;;;;;;;12.77;5.85;;;7.60;99.90;;;;;;21335162;27;20027;-78
2022/11/30 11:51:45;;;;;;;17.05;6.35;;;7.60;99.90;;;;;;21331590;27;20119;-77
2022/11/30 12:02:16;;;;;;;10.35;5.25;;;7.80;99.90;;;;;;21329438;27;20486;-78
2022/11/30 12:12:17;;;;;;;9.63;4.90;;;7.60;99.90;;;;;;21187555;27;20063;-79
2022/11/30 12:22:49;;;;;;;11.67;6.23;;;7.60;99.90;;;;;;21265283;27;20041;-78
2022/11/30 12:33:26;;;;;;;9.95;5.45;;;7.60;99.90;;;;;;21336150;27;20457;-79
2022/11/30 12:44:05;;;;;;;15.70;6.78;;;7.60;99.90;;;;;;21345786;27;20026;-79
2022/11/30 12:54:30;;;;;;;7.88;3.92;;;7.30;99.90;;;;;;21334152;27;20018;-78
2022/11/30 13:04:47;;;;;;;5.50;2.67;;;7.30;99.90;;;;;;21344828;27;20393;-79
2022/11/30 13:14:54;;;;;;;3.53;2.22;;;7.00;99.90;;;;;;21310099;27;20031;-79
2022/11/30 13:25:08;;;;;;;4.03;2.03;;;7.00;99.90;;;;;;21325683;27;20030;-79
2022/11/30 13:35:27;;;;;;;4.40;2.40;;;7.20;99.90;;;;;;21322502;27;20038;-79
2022/11/30 13:45:32;;;;;;;4.65;3.33;;;7.00;99.90;;;;;;21343311;27;20059;-80
2022/11/30 13:55:41;;;;;;;8.23;2.83;;;6.90;99.90;;;;;;21326140;27;20404;-81
2022/11/30 14:05:53;;;;;;;8.75;5.80;;;6.80;99.90;;;;;;21327235;27;20031;-80
2022/11/30 14:16:01;;;;;;;;;;;6.80;99.90;;;;;;21327758;27;20026;-80
2022/11/30 14:26:22;;;;;;;11.77;4.85;;;6.70;99.90;;;;;;21342172;27;19934;-80
2022/11/30 14:36:31;;;;;;;10.73;4.57;;;6.40;99.90;;;;;;21305790;27;20038;-80
2022/11/30 14:46:33;;;;;;;18.23;8.45;;;6.40;99.90;;;;;;21324842;27;20102;-80
2022/11/30 14:56:47;;;;;;;17.98;8.38;;;6.30;99.90;;;;;;21239350;27;20028;-81
2022/11/30 15:06:48;;;;;;;20.40;8.13;;;6.00;99.90;;;;;;21239812;27;20027;-79
2022/11/30 15:16:51;;;;;;;;;;;5.80;99.90;;;;;;21168940;27;20065;-79
2022/11/30 15:27:05;;;;;;;18.20;8.13;;;5.70;99.90;;;;;;21300765;27;19946;-80
2022/11/30 15:37:06;;;;;;;17.58;7.70;;;5.60;99.90;;;;;;21323772;27;20030;-79
2022/11/30 15:47:22;;;;;;;;;;;5.50;99.90;;;;;;21374384;27;20086;-79
2022/11/30 15:57:25;;;;;;;18.67;8.85;;;5.60;99.90;;;;;;21246045;27;20305;-79
2022/11/30 16:07:32;;;;;;;14.43;7.05;;;5.50;99.90;;;;;;21302350;27;20434;-79
2022/11/30 16:17:33;;;;;;;13.55;7.22;;;5.50;99.90;;;;;;21324504;27;20039;-80
2022/11/30 16:27:33;;;;;;;;;;;5.40;99.90;;;;;;21268094;27;20046;-83
2022/11/30 16:37:34;;;;;;;12.73;6.30;;;5.40;99.90;;;;;;21243237;27;19964;-83
2022/11/30 16:47:35;;;;;;;15.07;6.28;;;5.20;99.90;;;;;;21244524;27;20113;-83
2022/11/30 16:57:35;;;;;;;15.35;6.70;;;5.20;99.90;;;;;;21241522;27;20493;-83
2022/11/30 17:07:36;;;;;;;;;;;5.20;99.90;;;;;;21242395;27;20031;-83
2022/11/30 17:17:37;;;;;;;15.87;6.23;;;5.10;99.90;;;;;;21240776;27;20288;-82
2022/11/30 17:27:38;;;;;;;;;;;5.20;99.90;;;;;;21244694;27;20283;-82
2022/11/30 17:37:38;;;;;;;22.50;8.80;;;5.20;99.90;;;;;;21241317;27;19912;-83
2022/11/30 17:47:39;;;;;;;17.48;7.53;;;5.20;99.90;;;;;;21233534;27;20049;-82
2022/11/30 17:57:40;;;;;;;;;;;5.10;99.90;;;;;;21231834;27;20035;-81
2022/11/30 18:07:41;;;;;;;14.87;6.73;;;5.10;99.90;;;;;;21250605;27;19946;-81
2022/11/30 18:17:41;;;;;;;;;;;5.10;99.90;;;;;;21224802;27;20367;-81
2022/11/30 18:27:43;;;;;;;14.33;6.53;;;5.10;99.90;;;;;;21316694;27;19921;-82
2022/11/30 18:37:44;;;;;;;17.33;7.97;;;5.00;99.90;;;;;;21315782;27;20038;-81
2022/11/30 18:47:44;;;;;;;;;;;4.90;99.90;;;;;;21298449;27;20080;-81
2022/11/30 18:57:45;;;;;;;13.20;5.93;;;4.90;99.90;;;;;;21312226;27;19917;-83
2022/11/30 19:07:46;;;;;;;14.55;7.18;;;4.90;99.90;;;;;;21354028;27;20430;-83
2022/11/30 19:17:47;;;;;;;;;;;4.90;99.90;;;;;;21342624;27;20035;-83
2022/11/30 19:27:48;;;;;;;17.83;7.82;;;4.70;99.90;;;;;;21340826;27;20022;-83
2022/11/30 19:37:50;;;;;;;;;;;4.70;99.90;;;;;;21363082;27;20034;-83
2022/11/30 19:47:51;;;;;;;20.23;7.35;;;4.70;99.90;;;;;;21343062;27;19907;-83
2022/11/30 19:57:51;;;;;;;;;;;4.60;99.90;;;;;;21268272;27;20035;-83
2022/11/30 20:07:52;;;;;;;14.90;6.72;;;4.60;99.90;;;;;;21328310;27;19906;-82
2022/11/30 20:17:53;;;;;;;15.13;7.35;;;4.60;99.90;;;;;;21329443;27;20027;-81
2022/11/30 20:27:54;;;;;;;15.40;7.28;;;4.60;99.90;;;;;;21254277;27;20033;-81
2022/11/30 20:37:55;;;;;;;17.33;8.25;;;4.50;99.90;;;;;;21254068;27;20637;-81
2022/11/30 20:47:56;;;;;;;19.42;8.40;;;4.50;99.90;;;;;;21284947;27;20031;-82
2022/11/30 20:57:57;;;;;;;18.98;8.70;;;4.50;99.90;;;;;;21254517;27;20038;-82
2022/11/30 21:07:57;;;;;;;;;;;4.50;99.90;;;;;;21249799;27;20039;-81
2022/11/30 21:17:58;;;;;;;18.93;8.13;;;4.50;99.90;;;;;;21252749;27;19911;-84
2022/11/30 21:27:59;;;;;;;21.20;8.85;;;4.50;99.90;;;;;;21235805;27;20042;-82
2022/11/30 21:38:00;;;;;;;;;;;4.50;99.90;;;;;;21273515;27;20509;-83
2022/11/30 21:48:00;;;;;;;20.03;9.57;;;4.60;99.90;;;;;;21258521;27;19907;-84
2022/11/30 21:58:01;;;;;;;18.65;9.32;;;4.50;99.90;;;;;;21256991;27;20528;-84
2022/11/30 22:08:02;;;;;;;21.00;9.57;;;4.50;99.90;;;;;;21278788;27;20031;-84
2022/11/30 22:18:03;;;;;;;26.90;11.48;;;4.50;99.90;;;;;;21248916;27;20389;-83
2022/11/30 22:28:03;;;;;;;;;;;4.60;99.90;;;;;;21342429;27;20054;-84
2022/11/30 22:38:04;;;;;;;20.27;8.20;;;4.50;99.90;;;;;;21329019;27;19911;-83
2022/11/30 22:48:05;;;;;;;19.42;9.18;;;4.50;99.90;;;;;;21311689;27;20098;-83
2022/11/30 22:58:06;;;;;;;;;;;4.40;99.90;;;;;;21327006;27;20053;-83
2022/11/30 23:08:07;;;;;;;23.27;9.63;;;4.40;99.90;;;;;;21308221;27;20312;-83
2022/11/30 23:18:07;;;;;;;18.75;8.90;;;4.40;99.90;;;;;;21310139;27;20038;-84
2022/11/30 23:28:08;;;;;;;22.45;9.23;;;4.40;99.90;;;;;;21310011;27;20518;-83
2022/11/30 23:38:09;;;;;;;;;;;4.30;99.90;;;;;;21310852;27;20505;-83
2022/11/30 23:48:10;;;;;;;24.38;10.68;;;4.40;99.90;;;;;;21310767;27;19907;-83
2022/11/30 23:58:11;;;;;;;22.33;9.20;;;4.40;99.90;;;;;;21312909;27;20404;-83
